sensor_id;sensor_type;location;lat;lon;timestamp;P1;durP1;ratioP1;P2;durP2;ratioP2
6424;SDS011;12193;42.642;23.384;2023-06-14T00:01:10;15.47;;;9.33;;
6424;SDS011;12193;42.642;23.384;2023-06-14T00:03:40;14.97;;;9.37;;
6424;SDS011;12193;42.642;23.384;2023-06-14T00:06:09;17.03;;;9.90;;
6424;SDS011;12193;42.642;23.384;2023-06-14T03:08:27;11.03;;;6.60;;
6424;SDS011;12193;42.642;23.384;2023-06-14T03:10:57;11.20;;;5.90;;
6424;SDS011;12193;42.642;23.384;2023-06-14T03:13:28;10.13;;;5.93;;
6424;SDS011;12193;42.642;23.384;2023-06-14T03:15:58;10.23;;;6.53;;
6424;SDS011;12193;42.642;23.384;2023-06-14T03:18:28;9.40;;;6.10;;
6424;SDS011;12193;42.642;23.384;2023-06-14T03:21:01;9.53;;;6.40;;
6424;SDS011;12193;42.642;23.384;2023-06-14T03:23:33;8.13;;;5.67;;
6424;SDS011;12193;42.642;23.384;2023-06-14T03:26:02;11.47;;;6.60;;
6424;SDS011;12193;42.642;23.384;2023-06-14T03:28:31;10.60;;;6.50;;
6424;SDS011;12193;42.642;23.384;2023-06-14T03:31:01;9.07;;;6.20;;
6424;SDS011;12193;42.642;23.384;2023-06-14T03:33:30;12.17;;;7.80;;
6424;SDS011;12193;42.642;23.384;2023-06-14T03:35:59;8.53;;;6.53;;
6424;SDS011;12193;42.642;23.384;2023-06-14T03:38:28;8.43;;;6.40;;
6424;SDS011;12193;42.642;23.384;2023-06-14T03:41:00;12.67;;;7.60;;
6424;SDS011;12193;42.642;23.384;2023-06-14T03:43:29;11.20;;;7.27;;
6424;SDS011;12193;42.642;23.384;2023-06-14T03:45:59;13.97;;;8.27;;
6424;SDS011;12193;42.642;23.384;2023-06-14T03:48:28;14.17;;;7.33;;
6424;SDS011;12193;42.642;23.384;2023-06-14T03:50:57;9.87;;;7.10;;
6424;SDS011;12193;42.642;23.384;2023-06-14T03:53:26;14.07;;;7.87;;
6424;SDS011;12193;42.642;23.384;2023-06-14T03:55:56;10.47;;;7.43;;
6424;SDS011;12193;42.642;23.384;2023-06-14T03:58:28;9.40;;;6.57;;
6424;SDS011;12193;42.642;23.384;2023-06-14T04:00:58;12.53;;;8.60;;
6424;SDS011;12193;42.642;23.384;2023-06-14T04:03:27;10.07;;;7.07;;
6424;SDS011;12193;42.642;23.384;2023-06-14T04:05:56;10.70;;;6.60;;
6424;SDS011;12193;42.642;23.384;2023-06-14T04:08:26;13.77;;;7.70;;
6424;SDS011;12193;42.642;23.384;2023-06-14T04:10:55;11.00;;;6.97;;
6424;SDS011;12193;42.642;23.384;2023-06-14T04:13:24;12.13;;;7.17;;
6424;SDS011;12193;42.642;23.384;2023-06-14T04:15:56;11.77;;;8.00;;
6424;SDS011;12193;42.642;23.384;2023-06-14T04:18:25;14.60;;;8.00;;
6424;SDS011;12193;42.642;23.384;2023-06-14T04:20:55;9.43;;;7.00;;
6424;SDS011;12193;42.642;23.384;2023-06-14T04:23:25;13.67;;;7.63;;
6424;SDS011;12193;42.642;23.384;2023-06-14T04:25:54;13.20;;;7.47;;
6424;SDS011;12193;42.642;23.384;2023-06-14T04:28:27;10.60;;;7.40;;
6424;SDS011;12193;42.642;23.384;2023-06-14T04:31:00;14.70;;;8.13;;
6424;SDS011;12193;42.642;23.384;2023-06-14T04:33:30;12.33;;;7.77;;
6424;SDS011;12193;42.642;23.384;2023-06-14T04:36:08;13.50;;;7.60;;
6424;SDS011;12193;42.642;23.384;2023-06-14T04:38:39;12.07;;;8.13;;
6424;SDS011;12193;42.642;23.384;2023-06-14T04:41:08;13.70;;;7.93;;
6424;SDS011;12193;42.642;23.384;2023-06-14T04:43:38;10.20;;;7.27;;
6424;SDS011;12193;42.642;23.384;2023-06-14T04:46:11;15.00;;;7.70;;
6424;SDS011;12193;42.642;23.384;2023-06-14T04:48:40;13.67;;;7.60;;
6424;SDS011;12193;42.642;23.384;2023-06-14T04:51:11;14.07;;;8.50;;
6424;SDS011;12193;42.642;23.384;2023-06-14T04:53:42;12.57;;;7.63;;
6424;SDS011;12193;42.642;23.384;2023-06-14T04:56:11;12.60;;;8.20;;
6424;SDS011;12193;42.642;23.384;2023-06-14T04:58:40;11.93;;;8.57;;
6424;SDS011;12193;42.642;23.384;2023-06-14T05:01:12;15.47;;;9.30;;
6424;SDS011;12193;42.642;23.384;2023-06-14T05:03:42;16.63;;;9.97;;
6424;SDS011;12193;42.642;23.384;2023-06-14T05:06:15;15.27;;;9.50;;
6424;SDS011;12193;42.642;23.384;2023-06-14T05:08:44;15.87;;;10.43;;
6424;SDS011;12193;42.642;23.384;2023-06-14T05:11:14;17.23;;;9.63;;
6424;SDS011;12193;42.642;23.384;2023-06-14T05:13:43;14.93;;;9.70;;
6424;SDS011;12193;42.642;23.384;2023-06-14T05:16:15;16.17;;;9.87;;
6424;SDS011;12193;42.642;23.384;2023-06-14T05:18:45;13.80;;;8.70;;
6424;SDS011;12193;42.642;23.384;2023-06-14T05:21:14;14.33;;;9.47;;
6424;SDS011;12193;42.642;23.384;2023-06-14T05:23:44;14.37;;;9.13;;
6424;SDS011;12193;42.642;23.384;2023-06-14T05:26:13;17.73;;;9.63;;
6424;SDS011;12193;42.642;23.384;2023-06-14T05:28:43;14.97;;;9.10;;
6424;SDS011;12193;42.642;23.384;2023-06-14T05:31:15;18.27;;;9.50;;
6424;SDS011;12193;42.642;23.384;2023-06-14T05:33:44;15.07;;;9.77;;
6424;SDS011;12193;42.642;23.384;2023-06-14T05:36:14;16.80;;;10.10;;
6424;SDS011;12193;42.642;23.384;2023-06-14T05:38:44;17.00;;;9.70;;
6424;SDS011;12193;42.642;23.384;2023-06-14T05:41:14;17.13;;;10.37;;
6424;SDS011;12193;42.642;23.384;2023-06-14T05:43:44;17.00;;;10.17;;
6424;SDS011;12193;42.642;23.384;2023-06-14T05:46:15;16.17;;;9.93;;
6424;SDS011;12193;42.642;23.384;2023-06-14T05:48:47;17.27;;;10.70;;
6424;SDS011;12193;42.642;23.384;2023-06-14T05:51:17;15.10;;;10.07;;
6424;SDS011;12193;42.642;23.384;2023-06-14T05:53:47;19.30;;;10.77;;
6424;SDS011;12193;42.642;23.384;2023-06-14T05:56:17;16.97;;;10.67;;
6424;SDS011;12193;42.642;23.384;2023-06-14T05:58:47;16.60;;;11.13;;
6424;SDS011;12193;42.642;23.384;2023-06-14T06:01:18;16.40;;;10.07;;
6424;SDS011;12193;42.642;23.384;2023-06-14T06:03:48;15.07;;;10.30;;
6424;SDS011;12193;42.642;23.384;2023-06-14T06:06:17;20.13;;;10.60;;
6424;SDS011;12193;42.642;23.384;2023-06-14T06:08:46;16.30;;;10.17;;
6424;SDS011;12193;42.642;23.384;2023-06-14T06:11:16;20.03;;;10.63;;
6424;SDS011;12193;42.642;23.384;2023-06-14T06:13:45;16.73;;;10.60;;
6424;SDS011;12193;42.642;23.384;2023-06-14T06:16:15;18.03;;;11.20;;
6424;SDS011;12193;42.642;23.384;2023-06-14T06:18:47;16.67;;;10.67;;
6424;SDS011;12193;42.642;23.384;2023-06-14T06:21:16;16.77;;;10.83;;
6424;SDS011;12193;42.642;23.384;2023-06-14T06:23:45;17.70;;;10.83;;
6424;SDS011;12193;42.642;23.384;2023-06-14T06:26:15;17.17;;;10.47;;
6424;SDS011;12193;42.642;23.384;2023-06-14T06:28:44;16.03;;;10.17;;
6424;SDS011;12193;42.642;23.384;2023-06-14T06:31:13;17.33;;;11.50;;
6424;SDS011;12193;42.642;23.384;2023-06-14T06:33:42;16.13;;;10.57;;
6424;SDS011;12193;42.642;23.384;2023-06-14T06:36:14;17.37;;;11.27;;
6424;SDS011;12193;42.642;23.384;2023-06-14T06:38:43;16.07;;;11.10;;
6424;SDS011;12193;42.642;23.384;2023-06-14T06:41:12;15.03;;;10.43;;
6424;SDS011;12193;42.642;23.384;2023-06-14T06:43:42;18.40;;;11.60;;
6424;SDS011;12193;42.642;23.384;2023-06-14T06:46:11;18.13;;;11.30;;
6424;SDS011;12193;42.642;23.384;2023-06-14T06:48:41;22.90;;;11.50;;
6424;SDS011;12193;42.642;23.384;2023-06-14T06:51:10;20.07;;;12.03;;
6424;SDS011;12193;42.642;23.384;2023-06-14T06:53:43;23.13;;;12.53;;
6424;SDS011;12193;42.642;23.384;2023-06-14T06:56:20;19.57;;;11.03;;
6424;SDS011;12193;42.642;23.384;2023-06-14T06:58:50;21.00;;;11.70;;
6424;SDS011;12193;42.642;23.384;2023-06-14T07:01:19;17.23;;;10.60;;
6424;SDS011;12193;42.642;23.384;2023-06-14T07:03:50;19.63;;;11.60;;
6424;SDS011;12193;42.642;23.384;2023-06-14T07:06:19;19.23;;;11.97;;
6424;SDS011;12193;42.642;23.384;2023-06-14T07:08:53;18.70;;;11.87;;
6424;SDS011;12193;42.642;23.384;2023-06-14T07:11:27;21.13;;;11.40;;
6424;SDS011;12193;42.642;23.384;2023-06-14T07:13:56;19.47;;;12.33;;
6424;SDS011;12193;42.642;23.384;2023-06-14T07:16:26;21.57;;;11.67;;
6424;SDS011;12193;42.642;23.384;2023-06-14T07:18:55;20.13;;;11.40;;
6424;SDS011;12193;42.642;23.384;2023-06-14T07:21:24;17.07;;;11.63;;
6424;SDS011;12193;42.642;23.384;2023-06-14T07:23:56;18.43;;;11.73;;
6424;SDS011;12193;42.642;23.384;2023-06-14T07:26:26;18.17;;;11.57;;
6424;SDS011;12193;42.642;23.384;2023-06-14T07:28:55;15.67;;;11.00;;
6424;SDS011;12193;42.642;23.384;2023-06-14T07:31:24;19.33;;;11.40;;
6424;SDS011;12193;42.642;23.384;2023-06-14T07:33:53;17.97;;;11.17;;
6424;SDS011;12193;42.642;23.384;2023-06-14T07:36:23;15.63;;;10.40;;
6424;SDS011;12193;42.642;23.384;2023-06-14T07:38:52;14.17;;;9.97;;
6424;SDS011;12193;42.642;23.384;2023-06-14T07:41:24;18.00;;;10.87;;
6424;SDS011;12193;42.642;23.384;2023-06-14T07:43:53;14.00;;;10.00;;
6424;SDS011;12193;42.642;23.384;2023-06-14T07:46:22;14.27;;;10.07;;
6424;SDS011;12193;42.642;23.384;2023-06-14T07:48:51;15.73;;;9.30;;
6424;SDS011;12193;42.642;23.384;2023-06-14T07:51:21;14.33;;;9.73;;
6424;SDS011;12193;42.642;23.384;2023-06-14T07:53:50;15.43;;;10.00;;
6424;SDS011;12193;42.642;23.384;2023-06-14T07:56:20;13.50;;;9.23;;
6424;SDS011;12193;42.642;23.384;2023-06-14T07:58:52;18.87;;;10.00;;
6424;SDS011;12193;42.642;23.384;2023-06-14T08:01:21;13.10;;;9.70;;
6424;SDS011;12193;42.642;23.384;2023-06-14T08:03:51;12.27;;;8.97;;
6424;SDS011;12193;42.642;23.384;2023-06-14T08:06:20;14.20;;;9.53;;
6424;SDS011;12193;42.642;23.384;2023-06-14T08:08:49;14.30;;;10.03;;
6424;SDS011;12193;42.642;23.384;2023-06-14T08:11:19;17.07;;;10.40;;
6424;SDS011;12193;42.642;23.384;2023-06-14T08:13:52;18.57;;;10.67;;
6424;SDS011;12193;42.642;23.384;2023-06-14T08:16:21;14.53;;;9.87;;
6424;SDS011;12193;42.642;23.384;2023-06-14T08:18:51;13.80;;;8.90;;
6424;SDS011;12193;42.642;23.384;2023-06-14T08:21:20;10.93;;;8.20;;
6424;SDS011;12193;42.642;23.384;2023-06-14T08:23:49;16.43;;;9.07;;
6424;SDS011;12193;42.642;23.384;2023-06-14T08:26:19;14.63;;;9.23;;
6424;SDS011;12193;42.642;23.384;2023-06-14T08:28:48;11.87;;;8.57;;
6424;SDS011;12193;42.642;23.384;2023-06-14T08:31:20;14.73;;;9.37;;
6424;SDS011;12193;42.642;23.384;2023-06-14T08:33:49;13.77;;;9.87;;
6424;SDS011;12193;42.642;23.384;2023-06-14T08:36:19;14.13;;;9.97;;
6424;SDS011;12193;42.642;23.384;2023-06-14T08:38:48;14.83;;;9.67;;
6424;SDS011;12193;42.642;23.384;2023-06-14T08:41:20;15.27;;;10.37;;
6424;SDS011;12193;42.642;23.384;2023-06-14T08:43:51;14.27;;;10.00;;
6424;SDS011;12193;42.642;23.384;2023-06-14T08:46:23;13.33;;;9.90;;
6424;SDS011;12193;42.642;23.384;2023-06-14T08:48:54;17.27;;;9.80;;
6424;SDS011;12193;42.642;23.384;2023-06-14T08:51:26;15.53;;;9.70;;
6424;SDS011;12193;42.642;23.384;2023-06-14T08:54:00;12.53;;;9.23;;
6424;SDS011;12193;42.642;23.384;2023-06-14T08:56:30;14.73;;;9.83;;
6424;SDS011;12193;42.642;23.384;2023-06-14T08:59:00;15.80;;;8.93;;
6424;SDS011;12193;42.642;23.384;2023-06-14T09:01:33;15.07;;;9.20;;
6424;SDS011;12193;42.642;23.384;2023-06-14T09:04:04;12.70;;;8.80;;
6424;SDS011;12193;42.642;23.384;2023-06-14T09:06:34;14.37;;;8.93;;
6424;SDS011;12193;42.642;23.384;2023-06-14T09:09:03;12.43;;;9.20;;
6424;SDS011;12193;42.642;23.384;2023-06-14T09:11:34;14.07;;;8.60;;
6424;SDS011;12193;42.642;23.384;2023-06-14T09:14:04;11.17;;;8.70;;
6424;SDS011;12193;42.642;23.384;2023-06-14T09:16:35;10.23;;;8.53;;
6424;SDS011;12193;42.642;23.384;2023-06-14T09:19:05;13.17;;;9.10;;
6424;SDS011;12193;42.642;23.384;2023-06-14T09:21:34;12.73;;;8.80;;
6424;SDS011;12193;42.642;23.384;2023-06-14T09:24:05;14.43;;;9.03;;
6424;SDS011;12193;42.642;23.384;2023-06-14T09:26:35;15.03;;;9.47;;
6424;SDS011;12193;42.642;23.384;2023-06-14T09:29:08;12.00;;;9.10;;
6424;SDS011;12193;42.642;23.384;2023-06-14T09:31:41;15.10;;;9.27;;
6424;SDS011;12193;42.642;23.384;2023-06-14T09:34:10;12.67;;;9.27;;
6424;SDS011;12193;42.642;23.384;2023-06-14T09:36:39;12.10;;;8.77;;
6424;SDS011;12193;42.642;23.384;2023-06-14T09:39:09;11.40;;;8.97;;
6424;SDS011;12193;42.642;23.384;2023-06-14T09:41:40;18.27;;;9.70;;
6424;SDS011;12193;42.642;23.384;2023-06-14T09:44:10;12.97;;;9.00;;
6424;SDS011;12193;42.642;23.384;2023-06-14T09:46:42;12.30;;;9.20;;
6424;SDS011;12193;42.642;23.384;2023-06-14T09:49:12;11.87;;;8.60;;
6424;SDS011;12193;42.642;23.384;2023-06-14T09:51:42;12.57;;;8.45;;
6424;SDS011;12193;42.642;23.384;2023-06-14T09:54:14;13.43;;;8.47;;
6424;SDS011;12193;42.642;23.384;2023-06-14T09:56:45;13.67;;;9.50;;
6424;SDS011;12193;42.642;23.384;2023-06-14T09:59:16;11.33;;;9.20;;
6424;SDS011;12193;42.642;23.384;2023-06-14T10:01:55;11.83;;;9.03;;
6424;SDS011;12193;42.642;23.384;2023-06-14T10:04:29;14.77;;;9.63;;
6424;SDS011;12193;42.642;23.384;2023-06-14T10:06:59;11.73;;;8.70;;
6424;SDS011;12193;42.642;23.384;2023-06-14T10:09:31;12.93;;;9.37;;
6424;SDS011;12193;42.642;23.384;2023-06-14T10:12:02;14.07;;;8.53;;
6424;SDS011;12193;42.642;23.384;2023-06-14T10:14:32;13.97;;;9.03;;
6424;SDS011;12193;42.642;23.384;2023-06-14T10:17:06;12.70;;;9.13;;
6424;SDS011;12193;42.642;23.384;2023-06-14T10:19:42;12.17;;;9.03;;
6424;SDS011;12193;42.642;23.384;2023-06-14T10:22:19;13.03;;;9.10;;
6424;SDS011;12193;42.642;23.384;2023-06-14T10:24:53;13.17;;;9.10;;
6424;SDS011;12193;42.642;23.384;2023-06-14T10:27:22;14.67;;;8.53;;
6424;SDS011;12193;42.642;23.384;2023-06-14T10:30:05;13.37;;;8.73;;
6424;SDS011;12193;42.642;23.384;2023-06-14T10:32:44;12.40;;;8.37;;
6424;SDS011;12193;42.642;23.384;2023-06-14T10:35:33;14.80;;;8.30;;
6424;SDS011;12193;42.642;23.384;2023-06-14T10:38:08;12.53;;;8.27;;
6424;SDS011;12193;42.642;23.384;2023-06-14T10:40:38;11.30;;;8.17;;
6424;SDS011;12193;42.642;23.384;2023-06-14T10:43:21;13.17;;;8.43;;
6424;SDS011;12193;42.642;23.384;2023-06-14T10:48:51;12.07;;;8.30;;
6424;SDS011;12193;42.642;23.384;2023-06-14T10:51:29;11.07;;;8.00;;
6424;SDS011;12193;42.642;23.384;2023-06-14T10:54:11;11.97;;;8.23;;
6424;SDS011;12193;42.642;23.384;2023-06-14T10:56:45;11.93;;;7.80;;
6424;SDS011;12193;42.642;23.384;2023-06-14T10:59:16;14.33;;;9.03;;
6424;SDS011;12193;42.642;23.384;2023-06-14T11:01:48;11.23;;;8.37;;
6424;SDS011;12193;42.642;23.384;2023-06-14T11:04:32;11.83;;;7.30;;
6424;SDS011;12193;42.642;23.384;2023-06-14T11:07:22;13.33;;;8.10;;
6424;SDS011;12193;42.642;23.384;2023-06-14T11:10:09;12.53;;;7.77;;
6424;SDS011;12193;42.642;23.384;2023-06-14T11:12:47;12.17;;;8.03;;
6424;SDS011;12193;42.642;23.384;2023-06-14T11:15:17;9.50;;;7.80;;
6424;SDS011;12193;42.642;23.384;2023-06-14T11:17:49;11.93;;;7.73;;
6424;SDS011;12193;42.642;23.384;2023-06-14T11:20:24;10.77;;;7.60;;
6424;SDS011;12193;42.642;23.384;2023-06-14T11:22:54;11.03;;;7.43;;
6424;SDS011;12193;42.642;23.384;2023-06-14T11:25:24;9.63;;;7.10;;
6424;SDS011;12193;42.642;23.384;2023-06-14T11:27:54;8.73;;;6.70;;
6424;SDS011;12193;42.642;23.384;2023-06-14T11:30:23;8.93;;;7.23;;
6424;SDS011;12193;42.642;23.384;2023-06-14T11:32:54;8.13;;;6.63;;
6424;SDS011;12193;42.642;23.384;2023-06-14T11:35:26;10.07;;;7.10;;
6424;SDS011;12193;42.642;23.384;2023-06-14T11:37:56;8.17;;;6.57;;
6424;SDS011;12193;42.642;23.384;2023-06-14T11:40:26;9.00;;;7.10;;
6424;SDS011;12193;42.642;23.384;2023-06-14T11:42:59;7.30;;;6.10;;
6424;SDS011;12193;42.642;23.384;2023-06-14T11:45:30;6.87;;;5.90;;
6424;SDS011;12193;42.642;23.384;2023-06-14T11:47:59;7.63;;;6.43;;
6424;SDS011;12193;42.642;23.384;2023-06-14T11:50:32;7.37;;;6.13;;
6424;SDS011;12193;42.642;23.384;2023-06-14T11:53:01;7.50;;;6.53;;
6424;SDS011;12193;42.642;23.384;2023-06-14T11:55:35;7.77;;;6.03;;
6424;SDS011;12193;42.642;23.384;2023-06-14T11:58:06;9.37;;;6.63;;
6424;SDS011;12193;42.642;23.384;2023-06-14T12:00:36;9.77;;;7.10;;
6424;SDS011;12193;42.642;23.384;2023-06-14T12:03:06;7.90;;;6.43;;
6424;SDS011;12193;42.642;23.384;2023-06-14T12:05:38;10.33;;;6.17;;
6424;SDS011;12193;42.642;23.384;2023-06-14T12:08:08;8.33;;;6.23;;
6424;SDS011;12193;42.642;23.384;2023-06-14T12:10:43;8.00;;;6.50;;
6424;SDS011;12193;42.642;23.384;2023-06-14T12:13:13;10.00;;;6.20;;
6424;SDS011;12193;42.642;23.384;2023-06-14T12:15:53;7.60;;;6.10;;
6424;SDS011;12193;42.642;23.384;2023-06-14T12:18:31;7.43;;;5.87;;
6424;SDS011;12193;42.642;23.384;2023-06-14T12:21:04;8.53;;;6.60;;
6424;SDS011;12193;42.642;23.384;2023-06-14T12:23:42;8.17;;;6.30;;
6424;SDS011;12193;42.642;23.384;2023-06-14T12:26:13;8.07;;;5.93;;
6424;SDS011;12193;42.642;23.384;2023-06-14T12:28:44;7.03;;;5.60;;
6424;SDS011;12193;42.642;23.384;2023-06-14T12:31:14;9.47;;;6.77;;
6424;SDS011;12193;42.642;23.384;2023-06-14T12:33:44;11.43;;;6.37;;
6424;SDS011;12193;42.642;23.384;2023-06-14T12:36:17;9.33;;;5.80;;
6424;SDS011;12193;42.642;23.384;2023-06-14T12:38:46;7.63;;;5.97;;
6424;SDS011;12193;42.642;23.384;2023-06-14T12:41:19;6.30;;;5.47;;
6424;SDS011;12193;42.642;23.384;2023-06-14T12:43:48;12.10;;;6.40;;
6424;SDS011;12193;42.642;23.384;2023-06-14T12:46:17;7.97;;;5.53;;
6424;SDS011;12193;42.642;23.384;2023-06-14T12:48:47;8.03;;;5.53;;
6424;SDS011;12193;42.642;23.384;2023-06-14T12:51:19;7.43;;;5.10;;
6424;SDS011;12193;42.642;23.384;2023-06-14T12:53:49;10.07;;;5.77;;
6424;SDS011;12193;42.642;23.384;2023-06-14T12:56:19;6.23;;;5.60;;
6424;SDS011;12193;42.642;23.384;2023-06-14T12:58:48;9.13;;;5.87;;
6424;SDS011;12193;42.642;23.384;2023-06-14T13:01:17;7.93;;;5.80;;
6424;SDS011;12193;42.642;23.384;2023-06-14T13:03:47;12.20;;;6.50;;
6424;SDS011;12193;42.642;23.384;2023-06-14T13:06:22;9.23;;;6.30;;
6424;SDS011;12193;42.642;23.384;2023-06-14T13:08:52;9.30;;;6.80;;
6424;SDS011;12193;42.642;23.384;2023-06-14T13:11:23;13.07;;;6.60;;
6424;SDS011;12193;42.642;23.384;2023-06-14T13:13:52;9.77;;;6.90;;
6424;SDS011;12193;42.642;23.384;2023-06-14T13:16:21;10.17;;;7.00;;
6424;SDS011;12193;42.642;23.384;2023-06-14T13:18:52;10.50;;;6.33;;
6424;SDS011;12193;42.642;23.384;2023-06-14T13:21:24;10.27;;;7.30;;
6424;SDS011;12193;42.642;23.384;2023-06-14T13:23:53;10.03;;;7.43;;
6424;SDS011;12193;42.642;23.384;2023-06-14T13:26:22;10.13;;;6.87;;
6424;SDS011;12193;42.642;23.384;2023-06-14T13:28:52;9.07;;;6.53;;
6424;SDS011;12193;42.642;23.384;2023-06-14T13:31:21;9.13;;;6.70;;
6424;SDS011;12193;42.642;23.384;2023-06-14T13:33:52;9.03;;;6.93;;
6424;SDS011;12193;42.642;23.384;2023-06-14T13:36:24;14.60;;;7.87;;
6424;SDS011;12193;42.642;23.384;2023-06-14T13:38:53;10.07;;;7.40;;
6424;SDS011;12193;42.642;23.384;2023-06-14T13:41:25;10.97;;;7.50;;
6424;SDS011;12193;42.642;23.384;2023-06-14T13:43:57;11.50;;;7.70;;
6424;SDS011;12193;42.642;23.384;2023-06-14T13:46:29;11.70;;;7.37;;
6424;SDS011;12193;42.642;23.384;2023-06-14T13:48:59;11.43;;;8.10;;
6424;SDS011;12193;42.642;23.384;2023-06-14T13:51:31;11.70;;;7.33;;
6424;SDS011;12193;42.642;23.384;2023-06-14T13:54:01;11.90;;;7.47;;
6424;SDS011;12193;42.642;23.384;2023-06-14T13:56:30;10.30;;;6.40;;
6424;SDS011;12193;42.642;23.384;2023-06-14T13:58:59;10.90;;;5.97;;
6424;SDS011;12193;42.642;23.384;2023-06-14T14:01:28;7.87;;;5.73;;
6424;SDS011;12193;42.642;23.384;2023-06-14T14:03:58;9.53;;;6.73;;
6424;SDS011;12193;42.642;23.384;2023-06-14T14:06:27;8.87;;;6.20;;
6424;SDS011;12193;42.642;23.384;2023-06-14T14:09:00;10.67;;;6.50;;
6424;SDS011;12193;42.642;23.384;2023-06-14T14:11:30;10.53;;;6.30;;
6424;SDS011;12193;42.642;23.384;2023-06-14T14:14:00;10.63;;;6.83;;
6424;SDS011;12193;42.642;23.384;2023-06-14T14:16:30;8.30;;;6.30;;
6424;SDS011;12193;42.642;23.384;2023-06-14T14:19:01;10.00;;;6.63;;
6424;SDS011;12193;42.642;23.384;2023-06-14T14:21:34;9.90;;;6.67;;
6424;SDS011;12193;42.642;23.384;2023-06-14T14:24:04;9.27;;;6.57;;
6424;SDS011;12193;42.642;23.384;2023-06-14T14:26:34;7.60;;;6.10;;
6424;SDS011;12193;42.642;23.384;2023-06-14T14:29:03;9.57;;;6.20;;
6424;SDS011;12193;42.642;23.384;2023-06-14T14:31:32;10.73;;;6.43;;
6424;SDS011;12193;42.642;23.384;2023-06-14T14:34:01;11.03;;;6.43;;
6424;SDS011;12193;42.642;23.384;2023-06-14T14:36:30;10.23;;;6.10;;
6424;SDS011;12193;42.642;23.384;2023-06-14T14:39:03;9.80;;;6.20;;
6424;SDS011;12193;42.642;23.384;2023-06-14T14:41:32;10.43;;;6.57;;
6424;SDS011;12193;42.642;23.384;2023-06-14T14:44:04;9.47;;;6.57;;
6424;SDS011;12193;42.642;23.384;2023-06-14T14:46:33;9.50;;;6.87;;
6424;SDS011;12193;42.642;23.384;2023-06-14T14:49:03;13.70;;;7.70;;
6424;SDS011;12193;42.642;23.384;2023-06-14T14:51:35;10.23;;;7.10;;
6424;SDS011;12193;42.642;23.384;2023-06-14T14:54:05;12.87;;;7.07;;
6424;SDS011;12193;42.642;23.384;2023-06-14T14:56:35;10.17;;;7.10;;
6424;SDS011;12193;42.642;23.384;2023-06-14T14:59:04;12.23;;;8.07;;
6424;SDS011;12193;42.642;23.384;2023-06-14T15:01:33;10.80;;;7.70;;
6424;SDS011;12193;42.642;23.384;2023-06-14T15:04:02;12.77;;;8.07;;
6424;SDS011;12193;42.642;23.384;2023-06-14T15:06:35;13.90;;;8.70;;
6424;SDS011;12193;42.642;23.384;2023-06-14T15:09:06;14.13;;;8.17;;
6424;SDS011;12193;42.642;23.384;2023-06-14T15:11:35;13.33;;;8.13;;
6424;SDS011;12193;42.642;23.384;2023-06-14T15:14:04;13.50;;;8.40;;
6424;SDS011;12193;42.642;23.384;2023-06-14T15:16:34;13.80;;;8.60;;
6424;SDS011;12193;42.642;23.384;2023-06-14T15:19:03;13.57;;;9.10;;
6424;SDS011;12193;42.642;23.384;2023-06-14T15:21:35;16.97;;;9.37;;
6424;SDS011;12193;42.642;23.384;2023-06-14T15:24:05;11.67;;;8.80;;
6424;SDS011;12193;42.642;23.384;2023-06-14T15:26:35;12.33;;;8.40;;
6424;SDS011;12193;42.642;23.384;2023-06-14T15:29:04;13.83;;;9.73;;
6424;SDS011;12193;42.642;23.384;2023-06-14T15:31:33;13.90;;;8.93;;
6424;SDS011;12193;42.642;23.384;2023-06-14T15:34:02;13.80;;;9.13;;
6424;SDS011;12193;42.642;23.384;2023-06-14T15:36:32;15.67;;;10.03;;
6424;SDS011;12193;42.642;23.384;2023-06-14T15:39:04;18.67;;;10.23;;
6424;SDS011;12193;42.642;23.384;2023-06-14T15:41:33;13.80;;;9.20;;
6424;SDS011;12193;42.642;23.384;2023-06-14T15:44:02;14.73;;;9.07;;
6424;SDS011;12193;42.642;23.384;2023-06-14T15:46:32;12.07;;;8.57;;
6424;SDS011;12193;42.642;23.384;2023-06-14T15:49:02;11.63;;;8.20;;
6424;SDS011;12193;42.642;23.384;2023-06-14T15:51:40;13.73;;;8.70;;
6424;SDS011;12193;42.642;23.384;2023-06-14T15:54:09;16.53;;;8.50;;
6424;SDS011;12193;42.642;23.384;2023-06-14T15:56:39;12.90;;;9.20;;
6424;SDS011;12193;42.642;23.384;2023-06-14T15:59:08;12.40;;;8.77;;
6424;SDS011;12193;42.642;23.384;2023-06-14T16:01:37;14.03;;;8.87;;
6424;SDS011;12193;42.642;23.384;2023-06-14T16:04:07;11.97;;;7.80;;
6424;SDS011;12193;42.642;23.384;2023-06-14T16:06:36;10.00;;;7.20;;
6424;SDS011;12193;42.642;23.384;2023-06-14T16:09:08;15.40;;;7.07;;
6424;SDS011;12193;42.642;23.384;2023-06-14T16:11:37;11.60;;;6.87;;
6424;SDS011;12193;42.642;23.384;2023-06-14T16:14:07;9.87;;;7.07;;
6424;SDS011;12193;42.642;23.384;2023-06-14T16:16:36;10.83;;;7.23;;
6424;SDS011;12193;42.642;23.384;2023-06-14T16:19:05;8.67;;;6.50;;
6424;SDS011;12193;42.642;23.384;2023-06-14T16:21:35;9.27;;;6.53;;
6424;SDS011;12193;42.642;23.384;2023-06-14T16:24:04;10.57;;;6.60;;
6424;SDS011;12193;42.642;23.384;2023-06-14T16:26:37;9.47;;;6.40;;
6424;SDS011;12193;42.642;23.384;2023-06-14T16:29:06;9.70;;;6.57;;
6424;SDS011;12193;42.642;23.384;2023-06-14T16:31:36;9.03;;;6.33;;
6424;SDS011;12193;42.642;23.384;2023-06-14T16:34:05;8.93;;;6.60;;
6424;SDS011;12193;42.642;23.384;2023-06-14T16:36:37;11.87;;;6.40;;
6424;SDS011;12193;42.642;23.384;2023-06-14T16:39:09;8.13;;;6.27;;
6424;SDS011;12193;42.642;23.384;2023-06-14T16:41:38;8.60;;;6.43;;
6424;SDS011;12193;42.642;23.384;2023-06-14T16:44:07;9.40;;;6.73;;
6424;SDS011;12193;42.642;23.384;2023-06-14T16:46:38;10.93;;;7.10;;
6424;SDS011;12193;42.642;23.384;2023-06-14T16:49:07;11.17;;;6.70;;
6424;SDS011;12193;42.642;23.384;2023-06-14T16:51:36;8.33;;;5.77;;
6424;SDS011;12193;42.642;23.384;2023-06-14T16:54:05;6.87;;;5.50;;
6424;SDS011;12193;42.642;23.384;2023-06-14T16:56:37;7.33;;;5.80;;
6424;SDS011;12193;42.642;23.384;2023-06-14T16:59:07;7.60;;;5.50;;
6424;SDS011;12193;42.642;23.384;2023-06-14T17:01:36;8.93;;;6.67;;
6424;SDS011;12193;42.642;23.384;2023-06-14T17:04:05;10.60;;;6.80;;
6424;SDS011;12193;42.642;23.384;2023-06-14T17:06:35;9.47;;;6.90;;
6424;SDS011;12193;42.642;23.384;2023-06-14T17:09:04;9.70;;;6.90;;
6424;SDS011;12193;42.642;23.384;2023-06-14T17:11:36;11.30;;;6.90;;
6424;SDS011;12193;42.642;23.384;2023-06-14T17:14:06;12.07;;;6.80;;
6424;SDS011;12193;42.642;23.384;2023-06-14T17:16:35;12.00;;;7.43;;
6424;SDS011;12193;42.642;23.384;2023-06-14T17:19:04;11.17;;;7.23;;
6424;SDS011;12193;42.642;23.384;2023-06-14T17:21:34;10.60;;;7.00;;
6424;SDS011;12193;42.642;23.384;2023-06-14T17:24:03;13.00;;;7.80;;
6424;SDS011;12193;42.642;23.384;2023-06-14T17:26:36;14.07;;;7.57;;
6424;SDS011;12193;42.642;23.384;2023-06-14T17:29:05;11.60;;;6.30;;
6424;SDS011;12193;42.642;23.384;2023-06-14T17:31:34;9.03;;;6.27;;
6424;SDS011;12193;42.642;23.384;2023-06-14T17:34:04;8.13;;;6.40;;
6424;SDS011;12193;42.642;23.384;2023-06-14T17:36:33;9.07;;;4.60;;
6424;SDS011;12193;42.642;23.384;2023-06-14T17:39:03;7.00;;;4.57;;
6424;SDS011;12193;42.642;23.384;2023-06-14T17:41:37;8.23;;;5.07;;
6424;SDS011;12193;42.642;23.384;2023-06-14T17:44:06;8.13;;;5.90;;
6424;SDS011;12193;42.642;23.384;2023-06-14T17:46:35;8.57;;;6.10;;
6424;SDS011;12193;42.642;23.384;2023-06-14T17:49:04;9.43;;;6.80;;
6424;SDS011;12193;42.642;23.384;2023-06-14T17:51:34;11.13;;;7.70;;
6424;SDS011;12193;42.642;23.384;2023-06-14T17:54:03;12.00;;;7.87;;
6424;SDS011;12193;42.642;23.384;2023-06-14T17:56:32;9.93;;;7.50;;
6424;SDS011;12193;42.642;23.384;2023-06-14T17:59:04;12.03;;;7.40;;